sensor_id;sensor_type;location;lat;lon;timestamp;P1;durP1;ratioP1;P2;durP2;ratioP2
15673;SDS011;7937;48.090;16.212;2023-09-07T10:01:02;4.72;;;3.50;;
15673;SDS011;7937;48.090;16.212;2023-09-07T10:04:08;3.47;;;3.08;;
15673;SDS011;7937;48.090;16.212;2023-09-07T10:07:12;4.13;;;2.92;;
15673;SDS011;7937;48.090;16.212;2023-09-07T10:10:14;4.68;;;3.72;;
15673;SDS011;7937;48.090;16.212;2023-09-07T10:13:17;4.53;;;3.70;;
15673;SDS011;7937;48.090;16.212;2023-09-07T10:16:51;7.63;;;3.00;;
15673;SDS011;7937;48.090;16.212;2023-09-07T10:20:03;6.18;;;3.40;;
15673;SDS011;7937;48.090;16.212;2023-09-07T10:23:09;4.25;;;3.42;;
15673;SDS011;7937;48.090;16.212;2023-09-07T10:26:15;3.63;;;2.92;;
15673;SDS011;7937;48.090;16.212;2023-09-07T10:29:18;5.38;;;3.22;;
15673;SDS011;7937;48.090;16.212;2023-09-07T10:32:21;7.70;;;3.33;;
15673;SDS011;7937;48.090;16.212;2023-09-07T10:35:23;3.88;;;2.92;;
15673;SDS011;7937;48.090;16.212;2023-09-07T10:38:27;3.67;;;2.83;;
15673;SDS011;7937;48.090;16.212;2023-09-07T10:41:39;3.03;;;2.72;;
15673;SDS011;7937;48.090;16.212;2023-09-07T10:44:46;5.78;;;3.03;;
15673;SDS011;7937;48.090;16.212;2023-09-07T10:47:48;4.80;;;3.28;;
15673;SDS011;7937;48.090;16.212;2023-09-07T10:50:50;3.80;;;3.40;;
15673;SDS011;7937;48.090;16.212;2023-09-07T10:53:53;4.18;;;2.90;;
15673;SDS011;7937;48.090;16.212;2023-09-07T10:56:57;4.20;;;2.78;;
15673;SDS011;7937;48.090;16.212;2023-09-07T11:00:10;4.82;;;3.35;;
15673;SDS011;7937;48.090;16.212;2023-09-07T11:03:13;4.05;;;3.15;;
15673;SDS011;7937;48.090;16.212;2023-09-07T11:06:17;3.40;;;3.00;;
15673;SDS011;7937;48.090;16.212;2023-09-07T11:09:25;4.95;;;3.20;;
15673;SDS011;7937;48.090;16.212;2023-09-07T11:12:27;4.63;;;2.60;;
15673;SDS011;7937;48.090;16.212;2023-09-07T11:15:30;5.65;;;3.03;;
15673;SDS011;7937;48.090;16.212;2023-09-07T11:18:33;6.10;;;2.78;;
15673;SDS011;7937;48.090;16.212;2023-09-07T11:21:37;3.75;;;2.70;;
15673;SDS011;7937;48.090;16.212;2023-09-07T11:24:41;4.30;;;2.80;;
15673;SDS011;7937;48.090;16.212;2023-09-07T11:27:43;4.03;;;3.08;;
15673;SDS011;7937;48.090;16.212;2023-09-07T11:30:51;7.63;;;3.20;;
15673;SDS011;7937;48.090;16.212;2023-09-07T11:33:56;3.70;;;2.78;;
15673;SDS011;7937;48.090;16.212;2023-09-07T11:36:58;4.95;;;3.03;;
15673;SDS011;7937;48.090;16.212;2023-09-07T11:40:01;5.35;;;3.05;;
15673;SDS011;7937;48.090;16.212;2023-09-07T11:43:06;3.78;;;3.10;;
15673;SDS011;7937;48.090;16.212;2023-09-07T11:46:08;3.97;;;2.60;;
15673;SDS011;7937;48.090;16.212;2023-09-07T11:49:13;2.90;;;2.60;;
15673;SDS011;7937;48.090;16.212;2023-09-07T11:52:16;3.13;;;2.78;;
15673;SDS011;7937;48.090;16.212;2023-09-07T11:55:18;6.20;;;3.15;;
15673;SDS011;7937;48.090;16.212;2023-09-07T11:58:21;2.67;;;2.47;;
15673;SDS011;7937;48.090;16.212;2023-09-07T12:01:23;5.40;;;2.78;;
15673;SDS011;7937;48.090;16.212;2023-09-07T12:04:26;3.92;;;2.80;;
15673;SDS011;7937;48.090;16.212;2023-09-07T12:07:28;3.60;;;3.30;;
15673;SDS011;7937;48.090;16.212;2023-09-07T12:10:30;3.00;;;2.67;;
15673;SDS011;7937;48.090;16.212;2023-09-07T12:13:33;3.35;;;2.72;;
15673;SDS011;7937;48.090;16.212;2023-09-07T12:16:36;6.57;;;2.88;;
15673;SDS011;7937;48.090;16.212;2023-09-07T12:19:38;3.75;;;3.33;;
15673;SDS011;7937;48.090;16.212;2023-09-07T12:22:43;3.38;;;2.90;;
15673;SDS011;7937;48.090;16.212;2023-09-07T12:25:45;3.90;;;2.95;;
15673;SDS011;7937;48.090;16.212;2023-09-07T12:28:52;3.58;;;3.28;;
15673;SDS011;7937;48.090;16.212;2023-09-07T12:31:55;3.72;;;3.33;;
15673;SDS011;7937;48.090;16.212;2023-09-07T12:34:59;3.55;;;3.22;;
15673;SDS011;7937;48.090;16.212;2023-09-07T12:38:01;3.28;;;2.97;;
15673;SDS011;7937;48.090;16.212;2023-09-07T12:41:05;4.07;;;3.10;;
15673;SDS011;7937;48.090;16.212;2023-09-07T12:44:07;3.95;;;3.03;;
15673;SDS011;7937;48.090;16.212;2023-09-07T12:47:09;4.45;;;2.72;;
15673;SDS011;7937;48.090;16.212;2023-09-07T12:50:12;3.30;;;2.33;;
15673;SDS011;7937;48.090;16.212;2023-09-07T12:53:14;3.70;;;2.78;;
15673;SDS011;7937;48.090;16.212;2023-09-07T12:56:16;4.47;;;3.15;;
15673;SDS011;7937;48.090;16.212;2023-09-07T12:59:20;3.88;;;3.17;;
15673;SDS011;7937;48.090;16.212;2023-09-07T13:02:22;3.22;;;2.90;;
15673;SDS011;7937;48.090;16.212;2023-09-07T13:05:24;4.43;;;3.00;;
15673;SDS011;7937;48.090;16.212;2023-09-07T13:08:27;4.38;;;2.85;;
15673;SDS011;7937;48.090;16.212;2023-09-07T13:11:31;3.33;;;2.72;;
15673;SDS011;7937;48.090;16.212;2023-09-07T13:14:33;3.17;;;2.88;;
15673;SDS011;7937;48.090;16.212;2023-09-07T13:17:35;3.13;;;2.83;;
15673;SDS011;7937;48.090;16.212;2023-09-07T13:20:37;3.95;;;2.90;;
15673;SDS011;7937;48.090;16.212;2023-09-07T13:23:40;3.75;;;3.30;;
15673;SDS011;7937;48.090;16.212;2023-09-07T13:26:46;3.33;;;2.90;;
15673;SDS011;7937;48.090;16.212;2023-09-07T13:29:49;3.95;;;3.00;;
15673;SDS011;7937;48.090;16.212;2023-09-07T13:32:51;3.88;;;2.70;;
15673;SDS011;7937;48.090;16.212;2023-09-07T13:35:53;3.20;;;2.72;;
15673;SDS011;7937;48.090;16.212;2023-09-07T13:38:55;4.75;;;3.03;;
15673;SDS011;7937;48.090;16.212;2023-09-07T13:41:58;3.35;;;3.05;;
15673;SDS011;7937;48.090;16.212;2023-09-07T13:45:01;4.78;;;3.40;;
15673;SDS011;7937;48.090;16.212;2023-09-07T13:48:03;3.10;;;2.80;;
15673;SDS011;7937;48.090;16.212;2023-09-07T13:51:05;5.03;;;3.17;;
15673;SDS011;7937;48.090;16.212;2023-09-07T13:54:09;3.28;;;2.97;;
15673;SDS011;7937;48.090;16.212;2023-09-07T13:57:11;4.57;;;3.08;;
15673;SDS011;7937;48.090;16.212;2023-09-07T14:00:13;3.75;;;2.67;;
15673;SDS011;7937;48.090;16.212;2023-09-07T14:03:16;3.95;;;3.00;;
15673;SDS011;7937;48.090;16.212;2023-09-07T14:06:19;4.22;;;3.08;;
15673;SDS011;7937;48.090;16.212;2023-09-07T14:09:24;3.35;;;2.78;;
15673;SDS011;7937;48.090;16.212;2023-09-07T14:12:26;4.22;;;3.35;;
15673;SDS011;7937;48.090;16.212;2023-09-07T14:15:29;3.75;;;2.90;;
15673;SDS011;7937;48.090;16.212;2023-09-07T14:18:31;4.35;;;3.08;;
15673;SDS011;7937;48.090;16.212;2023-09-07T14:21:33;3.30;;;2.92;;
15673;SDS011;7937;48.090;16.212;2023-09-07T14:24:35;3.10;;;2.60;;
15673;SDS011;7937;48.090;16.212;2023-09-07T14:27:38;2.95;;;2.47;;
15673;SDS011;7937;48.090;16.212;2023-09-07T14:30:40;3.28;;;2.97;;
15673;SDS011;7937;48.090;16.212;2023-09-07T14:33:42;5.93;;;2.80;;
15673;SDS011;7937;48.090;16.212;2023-09-07T14:36:44;7.50;;;3.38;;
15673;SDS011;7937;48.090;16.212;2023-09-07T14:39:47;5.07;;;2.80;;
15673;SDS011;7937;48.090;16.212;2023-09-07T14:42:52;5.47;;;2.88;;
15673;SDS011;7937;48.090;16.212;2023-09-07T14:45:55;2.75;;;2.55;;
15673;SDS011;7937;48.090;16.212;2023-09-07T14:48:59;2.60;;;2.40;;
15673;SDS011;7937;48.090;16.212;2023-09-07T14:52:02;4.82;;;3.08;;
15673;SDS011;7937;48.090;16.212;2023-09-07T14:55:05;3.38;;;3.08;;
15673;SDS011;7937;48.090;16.212;2023-09-07T14:58:11;6.07;;;2.83;;
15673;SDS011;7937;48.090;16.212;2023-09-07T15:01:14;3.15;;;2.75;;
15673;SDS011;7937;48.090;16.212;2023-09-07T15:04:17;4.57;;;2.70;;
15673;SDS011;7937;48.090;16.212;2023-09-07T15:07:20;4.53;;;2.63;;
15673;SDS011;7937;48.090;16.212;2023-09-07T15:10:24;5.03;;;3.17;;
15673;SDS011;7937;48.090;16.212;2023-09-07T15:13:28;3.95;;;2.92;;
15673;SDS011;7937;48.090;16.212;2023-09-07T15:16:30;3.35;;;2.45;;
15673;SDS011;7937;48.090;16.212;2023-09-07T15:19:33;4.75;;;2.75;;
15673;SDS011;7937;48.090;16.212;2023-09-07T15:22:36;3.58;;;2.80;;
15673;SDS011;7937;48.090;16.212;2023-09-07T15:25:38;4.47;;;2.80;;
15673;SDS011;7937;48.090;16.212;2023-09-07T15:28:41;5.75;;;3.00;;
15673;SDS011;7937;48.090;16.212;2023-09-07T15:31:44;3.15;;;2.47;;
15673;SDS011;7937;48.090;16.212;2023-09-07T15:34:46;3.58;;;2.60;;
15673;SDS011;7937;48.090;16.212;2023-09-07T15:37:49;3.30;;;2.50;;
15673;SDS011;7937;48.090;16.212;2023-09-07T15:40:52;3.03;;;2.42;;
15673;SDS011;7937;48.090;16.212;2023-09-07T15:43:56;4.40;;;2.60;;
15673;SDS011;7937;48.090;16.212;2023-09-07T15:47:01;3.03;;;2.50;;
15673;SDS011;7937;48.090;16.212;2023-09-07T15:50:04;3.15;;;2.40;;
15673;SDS011;7937;48.090;16.212;2023-09-07T15:53:11;3.55;;;2.70;;
15673;SDS011;7937;48.090;16.212;2023-09-07T15:56:15;5.00;;;2.88;;
15673;SDS011;7937;48.090;16.212;2023-09-07T15:59:18;3.00;;;2.60;;
15673;SDS011;7937;48.090;16.212;2023-09-07T16:02:22;2.45;;;2.25;;
15673;SDS011;7937;48.090;16.212;2023-09-07T16:05:25;4.60;;;2.60;;
15673;SDS011;7937;48.090;16.212;2023-09-07T16:08:28;3.30;;;2.92;;
15673;SDS011;7937;48.090;16.212;2023-09-07T16:11:32;2.50;;;2.25;;
15673;SDS011;7937;48.090;16.212;2023-09-07T16:14:36;5.43;;;2.90;;
15673;SDS011;7937;48.090;16.212;2023-09-07T16:17:40;2.60;;;2.35;;
15673;SDS011;7937;48.090;16.212;2023-09-07T16:20:44;3.60;;;2.42;;
15673;SDS011;7937;48.090;16.212;2023-09-07T16:23:49;4.38;;;2.78;;
15673;SDS011;7937;48.090;16.212;2023-09-07T16:26:53;3.20;;;2.58;;
15673;SDS011;7937;48.090;16.212;2023-09-07T16:29:55;4.53;;;3.10;;
15673;SDS011;7937;48.090;16.212;2023-09-07T16:32:59;3.70;;;2.90;;
15673;SDS011;7937;48.090;16.212;2023-09-07T16:36:02;3.17;;;2.87;;
15673;SDS011;7937;48.090;16.212;2023-09-07T16:39:04;4.27;;;2.70;;
15673;SDS011;7937;48.090;16.212;2023-09-07T16:42:08;5.13;;;2.80;;
15673;SDS011;7937;48.090;16.212;2023-09-07T16:45:10;4.80;;;3.20;;
15673;SDS011;7937;48.090;16.212;2023-09-07T16:48:13;7.23;;;3.30;;
15673;SDS011;7937;48.090;16.212;2023-09-07T16:51:16;5.23;;;2.90;;
15673;SDS011;7937;48.090;16.212;2023-09-07T16:54:19;7.27;;;3.00;;
15673;SDS011;7937;48.090;16.212;2023-09-07T16:57:21;3.73;;;2.63;;
15673;SDS011;7937;48.090;16.212;2023-09-07T17:00:23;4.30;;;2.90;;
15673;SDS011;7937;48.090;16.212;2023-09-07T17:03:25;4.50;;;3.20;;
15673;SDS011;7937;48.090;16.212;2023-09-07T17:06:27;4.33;;;2.70;;
15673;SDS011;7937;48.090;16.212;2023-09-07T17:09:29;4.23;;;2.97;;
15673;SDS011;7937;48.090;16.212;2023-09-07T17:12:33;6.93;;;2.87;;
15673;SDS011;7937;48.090;16.212;2023-09-07T17:15:36;3.80;;;3.30;;
15673;SDS011;7937;48.090;16.212;2023-09-07T17:18:38;3.63;;;3.30;;
15673;SDS011;7937;48.090;16.212;2023-09-07T17:21:40;5.23;;;3.10;;
15673;SDS011;7937;48.090;16.212;2023-09-07T17:24:41;3.07;;;2.77;;
15673;SDS011;7937;48.090;16.212;2023-09-07T17:27:44;3.80;;;3.00;;
15673;SDS011;7937;48.090;16.212;2023-09-07T17:30:47;3.80;;;3.40;;
15673;SDS011;7937;48.090;16.212;2023-09-07T17:33:49;2.90;;;2.50;;
15673;SDS011;7937;48.090;16.212;2023-09-07T17:36:51;4.50;;;3.33;;
15673;SDS011;7937;48.090;16.212;2023-09-07T17:39:53;6.03;;;3.07;;
15673;SDS011;7937;48.090;16.212;2023-09-07T17:42:59;4.43;;;3.23;;
15673;SDS011;7937;48.090;16.212;2023-09-07T17:46:01;4.83;;;3.37;;
15673;SDS011;7937;48.090;16.212;2023-09-07T17:49:03;4.60;;;3.37;;
15673;SDS011;7937;48.090;16.212;2023-09-07T17:52:05;8.50;;;4.13;;
15673;SDS011;7937;48.090;16.212;2023-09-07T17:55:08;15.27;;;3.90;;
15673;SDS011;7937;48.090;16.212;2023-09-07T17:58:10;8.47;;;3.30;;
15673;SDS011;7937;48.090;16.212;2023-09-07T18:01:13;5.73;;;3.87;;
15673;SDS011;7937;48.090;16.212;2023-09-07T18:04:16;5.87;;;3.43;;
15673;SDS011;7937;48.090;16.212;2023-09-07T18:07:18;4.10;;;3.30;;
15673;SDS011;7937;48.090;16.212;2023-09-07T18:10:20;3.87;;;3.47;;
15673;SDS011;7937;48.090;16.212;2023-09-07T18:13:22;6.20;;;3.90;;
15673;SDS011;7937;48.090;16.212;2023-09-07T18:16:24;8.40;;;3.67;;
15673;SDS011;7937;48.090;16.212;2023-09-07T18:19:28;4.57;;;3.40;;
15673;SDS011;7937;48.090;16.212;2023-09-07T18:22:30;4.33;;;3.33;;
15673;SDS011;7937;48.090;16.212;2023-09-07T18:25:35;6.60;;;3.87;;
15673;SDS011;7937;48.090;16.212;2023-09-07T18:28:38;6.37;;;3.80;;
15673;SDS011;7937;48.090;16.212;2023-09-07T18:31:40;7.40;;;3.97;;
15673;SDS011;7937;48.090;16.212;2023-09-07T18:34:42;4.10;;;3.60;;
15673;SDS011;7937;48.090;16.212;2023-09-07T18:37:44;6.43;;;4.07;;
15673;SDS011;7937;48.090;16.212;2023-09-07T18:40:46;4.47;;;3.43;;
15673;SDS011;7937;48.090;16.212;2023-09-07T18:43:49;5.07;;;3.57;;
15673;SDS011;7937;48.090;16.212;2023-09-07T18:46:54;5.57;;;4.40;;
15673;SDS011;7937;48.090;16.212;2023-09-07T18:49:56;6.37;;;3.83;;
15673;SDS011;7937;48.090;16.212;2023-09-07T18:52:58;5.33;;;4.13;;
15673;SDS011;7937;48.090;16.212;2023-09-07T18:56:01;6.20;;;3.57;;
15673;SDS011;7937;48.090;16.212;2023-09-07T18:59:03;4.90;;;3.97;;
15673;SDS011;7937;48.090;16.212;2023-09-07T19:02:06;5.40;;;3.40;;
15673;SDS011;7937;48.090;16.212;2023-09-07T19:05:08;8.17;;;4.53;;
15673;SDS011;7937;48.090;16.212;2023-09-07T19:08:11;5.83;;;4.40;;
15673;SDS011;7937;48.090;16.212;2023-09-07T19:11:13;4.47;;;3.93;;
15673;SDS011;7937;48.090;16.212;2023-09-07T19:14:17;4.20;;;3.70;;
15673;SDS011;7937;48.090;16.212;2023-09-07T19:17:18;6.70;;;3.87;;
15673;SDS011;7937;48.090;16.212;2023-09-07T19:20:21;5.37;;;4.07;;
15673;SDS011;7937;48.090;16.212;2023-09-07T19:23:23;12.27;;;4.53;;
15673;SDS011;7937;48.090;16.212;2023-09-07T19:26:26;5.53;;;4.17;;
15673;SDS011;7937;48.090;16.212;2023-09-07T19:29:36;5.17;;;3.93;;
15673;SDS011;7937;48.090;16.212;2023-09-07T19:32:40;9.47;;;4.17;;
15673;SDS011;7937;48.090;16.212;2023-09-07T19:35:42;8.13;;;3.97;;
15673;SDS011;7937;48.090;16.212;2023-09-07T19:38:45;5.50;;;4.20;;
15673;SDS011;7937;48.090;16.212;2023-09-07T19:41:51;5.37;;;3.77;;
15673;SDS011;7937;48.090;16.212;2023-09-07T19:44:52;5.40;;;4.00;;
15673;SDS011;7937;48.090;16.212;2023-09-07T19:47:55;4.07;;;3.77;;
15673;SDS011;7937;48.090;16.212;2023-09-07T19:50:57;4.70;;;3.90;;
15673;SDS011;7937;48.090;16.212;2023-09-07T19:54:00;6.57;;;4.30;;
15673;SDS011;7937;48.090;16.212;2023-09-07T19:57:02;4.20;;;3.80;;
15673;SDS011;7937;48.090;16.212;2023-09-07T20:00:04;5.43;;;4.30;;
15673;SDS011;7937;48.090;16.212;2023-09-07T20:03:08;6.83;;;3.90;;
15673;SDS011;7937;48.090;16.212;2023-09-07T20:06:11;3.83;;;3.50;;
15673;SDS011;7937;48.090;16.212;2023-09-07T20:09:13;4.57;;;3.97;;
15673;SDS011;7937;48.090;16.212;2023-09-07T20:12:18;5.60;;;4.00;;
15673;SDS011;7937;48.090;16.212;2023-09-07T20:15:21;5.90;;;4.33;;
15673;SDS011;7937;48.090;16.212;2023-09-07T20:18:23;5.93;;;4.40;;
15673;SDS011;7937;48.090;16.212;2023-09-07T20:21:25;4.77;;;3.73;;
15673;SDS011;7937;48.090;16.212;2023-09-07T20:24:27;5.30;;;4.40;;
15673;SDS011;7937;48.090;16.212;2023-09-07T20:27:29;4.20;;;3.80;;
15673;SDS011;7937;48.090;16.212;2023-09-07T20:30:31;5.90;;;3.87;;
15673;SDS011;7937;48.090;16.212;2023-09-07T20:33:33;4.97;;;3.97;;
15673;SDS011;7937;48.090;16.212;2023-09-07T20:36:35;7.80;;;4.70;;
15673;SDS011;7937;48.090;16.212;2023-09-07T20:39:37;4.77;;;4.00;;
15673;SDS011;7937;48.090;16.212;2023-09-07T20:42:39;4.47;;;4.07;;
15673;SDS011;7937;48.090;16.212;2023-09-07T20:45:41;4.03;;;3.50;;
15673;SDS011;7937;48.090;16.212;2023-09-07T20:48:43;9.73;;;4.50;;
15673;SDS011;7937;48.090;16.212;2023-09-07T20:51:45;4.80;;;4.30;;
15673;SDS011;7937;48.090;16.212;2023-09-07T20:54:47;7.40;;;5.60;;
15673;SDS011;7937;48.090;16.212;2023-09-07T20:57:49;7.80;;;4.60;;
15673;SDS011;7937;48.090;16.212;2023-09-07T21:00:53;7.17;;;4.30;;
15673;SDS011;7937;48.090;16.212;2023-09-07T21:03:56;7.13;;;4.37;;
15673;SDS011;7937;48.090;16.212;2023-09-07T21:06:59;6.40;;;5.07;;
15673;SDS011;7937;48.090;16.212;2023-09-07T21:10:01;9.83;;;7.77;;
15673;SDS011;7937;48.090;16.212;2023-09-07T21:13:03;5.53;;;4.73;;
15673;SDS011;7937;48.090;16.212;2023-09-07T21:16:05;5.53;;;4.60;;
15673;SDS011;7937;48.090;16.212;2023-09-07T21:19:07;6.83;;;4.20;;
15673;SDS011;7937;48.090;16.212;2023-09-07T21:22:10;6.83;;;4.30;;
15673;SDS011;7937;48.090;16.212;2023-09-07T21:25:12;5.30;;;4.30;;
15673;SDS011;7937;48.090;16.212;2023-09-07T21:28:15;7.17;;;4.70;;
15673;SDS011;7937;48.090;16.212;2023-09-07T21:31:17;4.57;;;3.73;;
15673;SDS011;7937;48.090;16.212;2023-09-07T21:34:20;6.93;;;4.40;;
15673;SDS011;7937;48.090;16.212;2023-09-07T21:37:22;6.63;;;4.50;;
15673;SDS011;7937;48.090;16.212;2023-09-07T21:40:24;7.97;;;4.30;;
15673;SDS011;7937;48.090;16.212;2023-09-07T21:43:26;5.07;;;4.53;;
15673;SDS011;7937;48.090;16.212;2023-09-07T21:46:29;5.20;;;4.17;;
15673;SDS011;7937;48.090;16.212;2023-09-07T21:49:31;5.90;;;4.80;;
15673;SDS011;7937;48.090;16.212;2023-09-07T21:52:33;5.60;;;4.43;;
15673;SDS011;7937;48.090;16.212;2023-09-07T21:55:35;6.10;;;4.90;;
15673;SDS011;7937;48.090;16.212;2023-09-07T21:58:38;5.80;;;4.93;;
15673;SDS011;7937;48.090;16.212;2023-09-07T22:01:40;7.57;;;4.40;;
15673;SDS011;7937;48.090;16.212;2023-09-07T22:04:42;5.90;;;4.80;;
15673;SDS011;7937;48.090;16.212;2023-09-07T22:07:44;6.20;;;5.33;;
15673;SDS011;7937;48.090;16.212;2023-09-07T22:10:46;8.47;;;6.50;;
15673;SDS011;7937;48.090;16.212;2023-09-07T22:13:48;7.43;;;5.13;;
15673;SDS011;7937;48.090;16.212;2023-09-07T22:16:51;5.27;;;4.77;;
15673;SDS011;7937;48.090;16.212;2023-09-07T22:19:53;5.20;;;4.37;;
15673;SDS011;7937;48.090;16.212;2023-09-07T22:22:55;5.43;;;4.73;;
15673;SDS011;7937;48.090;16.212;2023-09-07T22:25:57;5.63;;;4.70;;
15673;SDS011;7937;48.090;16.212;2023-09-07T22:28:59;5.93;;;4.80;;
15673;SDS011;7937;48.090;16.212;2023-09-07T22:32:02;6.43;;;4.93;;
15673;SDS011;7937;48.090;16.212;2023-09-07T22:35:04;7.93;;;5.20;;
15673;SDS011;7937;48.090;16.212;2023-09-07T22:38:07;8.63;;;5.20;;
15673;SDS011;7937;48.090;16.212;2023-09-07T22:41:09;7.00;;;5.00;;
15673;SDS011;7937;48.090;16.212;2023-09-07T22:44:11;4.77;;;4.37;;
15673;SDS011;7937;48.090;16.212;2023-09-07T22:47:13;6.47;;;5.23;;
15673;SDS011;7937;48.090;16.212;2023-09-07T22:50:15;5.17;;;4.27;;
15673;SDS011;7937;48.090;16.212;2023-09-07T22:53:17;5.70;;;5.03;;
15673;SDS011;7937;48.090;16.212;2023-09-07T22:56:23;7.10;;;6.20;;
15673;SDS011;7937;48.090;16.212;2023-09-07T22:59:26;10.73;;;6.47;;
15673;SDS011;7937;48.090;16.212;2023-09-07T23:02:28;6.93;;;5.10;;
15673;SDS011;7937;48.090;16.212;2023-09-07T23:05:30;9.57;;;5.00;;
15673;SDS011;7937;48.090;16.212;2023-09-07T23:08:32;6.63;;;5.13;;
15673;SDS011;7937;48.090;16.212;2023-09-07T23:11:34;5.03;;;4.17;;
15673;SDS011;7937;48.090;16.212;2023-09-07T23:14:38;5.43;;;4.70;;
15673;SDS011;7937;48.090;16.212;2023-09-07T23:17:40;7.17;;;4.57;;
15673;SDS011;7937;48.090;16.212;2023-09-07T23:20:42;6.53;;;4.90;;
15673;SDS011;7937;48.090;16.212;2023-09-07T23:23:44;4.97;;;4.30;;
15673;SDS011;7937;48.090;16.212;2023-09-07T23:26:47;6.23;;;4.70;;
15673;SDS011;7937;48.090;16.212;2023-09-07T23:29:49;7.43;;;6.00;;
15673;SDS011;7937;48.090;16.212;2023-09-07T23:32:50;7.23;;;5.30;;
15673;SDS011;7937;48.090;16.212;2023-09-07T23:35:52;6.20;;;4.43;;
15673;SDS011;7937;48.090;16.212;2023-09-07T23:38:54;5.13;;;4.60;;
15673;SDS011;7937;48.090;16.212;2023-09-07T23:41:56;5.43;;;4.93;;
15673;SDS011;7937;48.090;16.212;2023-09-07T23:44:58;6.90;;;4.60;;
15673;SDS011;7937;48.090;16.212;2023-09-07T23:48:00;6.03;;;4.80;;
15673;SDS011;7937;48.090;16.212;2023-09-07T23:51:02;4.83;;;4.33;;
15673;SDS011;7937;48.090;16.212;2023-09-07T23:54:04;5.67;;;5.07;;
15673;SDS011;7937;48.090;16.212;2023-09-07T23:57:06;5.77;;;4.70;;
